createdAt,value
2024-01-10T00:01:44.987Z,12.63
2024-01-10T00:04:30.296Z,12.83
2024-01-10T00:07:15.751Z,14.00
2024-01-10T00:10:02.605Z,13.73
2024-01-10T00:12:47.657Z,13.23
2024-01-10T00:15:32.984Z,13.80
2024-01-10T00:18:18.416Z,12.43
2024-01-10T00:21:03.901Z,13.23
2024-01-10T00:23:49.102Z,13.50
2024-01-10T00:26:34.420Z,12.87
2024-01-10T00:29:20.473Z,13.47
2024-01-10T00:32:06.649Z,12.97
2024-01-10T00:34:51.964Z,13.10
2024-01-10T00:37:37.348Z,13.53
2024-01-10T00:40:22.807Z,13.43
2024-01-10T00:43:08.063Z,13.27
2024-01-10T00:45:53.099Z,12.57
2024-01-10T00:48:38.579Z,14.00
2024-01-10T00:51:24.000Z,12.83
2024-01-10T00:54:09.390Z,13.00
2024-01-10T00:56:54.780Z,13.07
2024-01-10T00:59:39.986Z,13.43
2024-01-10T01:02:25.257Z,13.67
2024-01-10T01:05:10.704Z,13.43
2024-01-10T01:07:55.899Z,12.70
2024-01-10T01:10:41.138Z,14.00
2024-01-10T01:13:26.524Z,13.23
2024-01-10T01:16:12.425Z,12.67
2024-01-10T01:18:57.840Z,13.43
2024-01-10T01:21:44.069Z,12.67
2024-01-10T01:24:29.164Z,13.80
2024-01-10T01:27:14.610Z,12.50
2024-01-10T01:30:00.075Z,13.63
2024-01-10T01:32:45.330Z,13.27
2024-01-10T01:35:30.824Z,13.03
2024-01-10T01:38:16.182Z,13.73
2024-01-10T01:41:01.982Z,12.03
2024-01-10T01:43:48.216Z,12.60
2024-01-10T01:46:34.166Z,13.03
2024-01-10T01:49:19.658Z,13.53
2024-01-10T01:52:06.018Z,14.07
2024-01-10T01:54:51.303Z,12.70
2024-01-10T01:57:38.422Z,12.43
2024-01-10T02:00:23.738Z,13.90
2024-01-10T02:03:11.084Z,13.00
2024-01-10T02:05:56.634Z,13.10
2024-01-10T02:08:41.845Z,12.97
2024-01-10T02:11:28.166Z,13.27
2024-01-10T02:14:13.957Z,13.07
2024-01-10T02:16:59.156Z,12.57
2024-01-10T02:19:44.625Z,13.10
2024-01-10T02:22:29.905Z,13.40
2024-01-10T02:25:15.544Z,12.67
2024-01-10T02:28:01.073Z,13.73
2024-01-10T02:30:48.297Z,11.67
2024-01-10T02:33:33.973Z,13.37
2024-01-10T02:36:19.380Z,13.00
2024-01-10T02:39:04.829Z,12.07
2024-01-10T02:41:50.288Z,13.13
2024-01-10T02:44:35.617Z,12.80
2024-01-10T02:47:21.131Z,11.57
2024-01-10T02:50:07.197Z,12.17
2024-01-10T02:52:52.415Z,12.60
2024-01-10T02:55:38.128Z,13.23
2024-01-10T02:58:26.340Z,12.13
2024-01-10T03:01:11.960Z,12.77
2024-01-10T03:03:57.325Z,11.60
2024-01-10T03:06:42.389Z,13.13
2024-01-10T03:09:27.880Z,12.57
2024-01-10T03:12:13.410Z,12.97
2024-01-10T03:14:58.899Z,13.07
2024-01-10T03:17:44.449Z,13.80
2024-01-10T03:20:29.624Z,13.13
2024-01-10T03:23:15.031Z,12.77
2024-01-10T03:26:00.068Z,12.27
2024-01-10T03:28:45.397Z,12.77
2024-01-10T03:31:31.506Z,12.50
2024-01-10T03:34:19.144Z,12.60
2024-01-10T03:37:04.714Z,11.87
2024-01-10T03:39:49.609Z,12.63
2024-01-10T03:42:35.196Z,12.83
2024-01-10T03:45:23.928Z,12.23
2024-01-10T03:48:09.173Z,13.13
2024-01-10T03:50:54.459Z,13.37
2024-01-10T03:53:39.692Z,12.90
2024-01-10T03:56:25.077Z,12.30
2024-01-10T03:59:10.926Z,12.33
2024-01-10T04:01:56.335Z,13.70
2024-01-10T04:04:42.339Z,12.13
2024-01-10T04:07:28.964Z,13.33
2024-01-10T04:10:15.757Z,12.53
2024-01-10T04:13:01.229Z,12.50
2024-01-10T04:15:46.428Z,12.27
2024-01-10T04:18:31.922Z,12.33
2024-01-10T04:21:17.608Z,12.43
2024-01-10T04:24:03.270Z,12.43
2024-01-10T04:26:48.698Z,13.27
2024-01-10T04:29:33.801Z,12.70
2024-01-10T04:32:19.210Z,11.97
2024-01-10T04:35:05.219Z,12.10
2024-01-10T04:37:50.433Z,12.53
2024-01-10T04:40:36.017Z,12.73
2024-01-10T04:43:21.399Z,11.43
2024-01-10T04:46:06.898Z,12.33
2024-01-10T04:48:52.215Z,12.73
2024-01-10T04:51:37.595Z,13.40
2024-01-10T04:54:22.981Z,12.87
2024-01-10T04:57:08.699Z,12.93
2024-01-10T04:59:54.667Z,12.37
2024-01-10T05:02:39.738Z,12.97
2024-01-10T05:05:25.423Z,12.90
2024-01-10T05:08:10.997Z,12.93
2024-01-10T05:10:56.197Z,11.87
2024-01-10T05:13:41.654Z,12.33
2024-01-10T05:16:26.927Z,12.53
2024-01-10T05:19:12.467Z,12.13
2024-01-10T05:21:59.782Z,12.63
2024-01-10T05:24:46.495Z,12.57
2024-01-10T05:27:31.933Z,12.43
2024-01-10T05:30:17.531Z,12.47
2024-01-10T05:33:02.823Z,12.33
2024-01-10T05:35:48.370Z,12.33
2024-01-10T05:38:33.672Z,12.13
2024-01-10T05:41:19.009Z,12.47
2024-01-10T05:44:05.863Z,12.53
2024-01-10T05:46:51.093Z,13.03
2024-01-10T05:49:36.975Z,12.13
2024-01-10T05:52:23.328Z,12.77
2024-01-10T05:55:10.039Z,11.60
2024-01-10T05:57:55.373Z,12.67
2024-01-10T06:00:40.854Z,12.97
2024-01-10T06:03:26.605Z,13.00
2024-01-10T06:06:11.842Z,13.20
2024-01-10T06:08:57.439Z,12.30
2024-01-10T06:11:43.377Z,12.57
2024-01-10T06:14:28.662Z,12.23
2024-01-10T06:17:14.494Z,12.90
2024-01-10T06:20:04.735Z,12.13
2024-01-10T06:22:50.289Z,13.23
2024-01-10T06:25:35.607Z,11.73
2024-01-10T06:28:21.678Z,12.70
2024-01-10T06:31:07.979Z,12.47
2024-01-10T06:33:54.487Z,12.43
2024-01-10T06:36:39.811Z,13.10
2024-01-10T06:39:25.544Z,12.30
2024-01-10T06:42:12.948Z,12.93
2024-01-10T06:44:58.161Z,12.37
2024-01-10T06:47:43.291Z,12.03
2024-01-10T06:50:28.926Z,11.93
2024-01-10T06:53:15.132Z,12.90
2024-01-10T06:56:01.065Z,12.50
2024-01-10T06:58:46.374Z,12.93
2024-01-10T07:01:33.180Z,12.67
2024-01-10T07:04:22.174Z,11.97
2024-01-10T07:07:10.061Z,12.77
2024-01-10T07:09:55.477Z,11.93
2024-01-10T07:12:42.464Z,12.40
2024-01-10T07:15:27.777Z,12.83
2024-01-10T07:18:13.300Z,12.47
2024-01-10T07:20:58.987Z,12.03
2024-01-10T07:23:44.599Z,13.07
2024-01-10T07:26:29.889Z,13.20
2024-01-10T07:29:15.174Z,13.00
2024-01-10T07:32:00.458Z,12.53
2024-01-10T07:34:46.061Z,12.73
2024-01-10T07:37:32.798Z,12.40
2024-01-10T07:40:18.100Z,12.57
2024-01-10T07:43:03.789Z,12.60
2024-01-10T07:45:48.893Z,12.73
2024-01-10T07:48:34.254Z,12.80
2024-01-10T07:51:20.829Z,12.10
2024-01-10T07:54:06.265Z,12.97
2024-01-10T07:56:51.510Z,13.50
2024-01-10T07:59:37.102Z,12.83
2024-01-10T08:02:22.505Z,12.77
2024-01-10T08:05:11.485Z,12.33
2024-01-10T08:07:57.623Z,12.60
2024-01-10T08:10:43.498Z,13.00
2024-01-10T08:13:28.628Z,14.23
2024-01-10T08:16:15.265Z,13.47
2024-01-10T08:19:00.836Z,13.43
2024-01-10T08:21:46.132Z,15.10
2024-01-10T08:24:31.209Z,13.47
2024-01-10T08:27:18.068Z,14.47
2024-01-10T08:30:06.979Z,16.03
2024-01-10T08:32:53.627Z,17.47
2024-01-10T08:35:40.319Z,17.00
2024-01-10T08:38:25.507Z,17.37
2024-01-10T08:41:12.880Z,16.57
2024-01-10T08:43:58.206Z,17.73
2024-01-10T08:46:43.856Z,17.97
2024-01-10T08:49:29.750Z,17.27
2024-01-10T08:52:14.801Z,16.60
2024-01-10T08:54:59.876Z,16.80
2024-01-10T08:57:45.265Z,17.37
2024-01-10T09:00:30.600Z,17.87
2024-01-10T09:03:15.790Z,17.57
2024-01-10T09:06:07.712Z,17.10
2024-01-10T09:08:57.486Z,16.50
2024-01-10T09:11:44.308Z,16.23
2024-01-10T09:14:31.919Z,17.63
2024-01-10T09:17:17.300Z,16.77
2024-01-10T09:20:04.698Z,15.90
2024-01-10T09:22:50.464Z,17.50
2024-01-10T09:25:35.802Z,17.30
2024-01-10T09:28:21.106Z,16.00
2024-01-10T09:31:08.372Z,17.07
2024-01-10T09:33:53.768Z,17.23
2024-01-10T09:36:39.247Z,16.13
2024-01-10T09:39:24.655Z,16.97
2024-01-10T09:42:09.763Z,16.07
2024-01-10T09:44:55.458Z,17.30
2024-01-10T09:47:44.310Z,17.20
2024-01-10T09:50:29.860Z,16.17
2024-01-10T09:53:25.762Z,16.97
2024-01-10T09:56:11.554Z,17.33
2024-01-10T09:58:59.890Z,17.43
2024-01-10T10:01:45.531Z,17.10
2024-01-10T10:04:31.831Z,16.03
2024-01-10T10:07:17.518Z,16.23
2024-01-10T10:10:03.942Z,17.37
2024-01-10T10:12:50.986Z,17.37
2024-01-10T10:15:36.095Z,17.30
2024-01-10T10:18:23.242Z,17.10
2024-01-10T10:21:15.923Z,17.03
2024-01-10T10:24:04.793Z,17.70
2024-01-10T10:26:50.033Z,16.83
2024-01-10T10:29:37.172Z,16.20
2024-01-10T10:32:22.766Z,16.10
2024-01-10T10:35:14.970Z,16.37
2024-01-10T10:38:10.347Z,16.77
2024-01-10T10:40:56.733Z,16.50
2024-01-10T10:43:42.552Z,16.70
2024-01-10T10:46:28.861Z,16.87
2024-01-10T10:49:14.954Z,16.27
2024-01-10T10:52:02.585Z,16.03
2024-01-10T10:54:48.977Z,17.40
2024-01-10T10:57:34.586Z,16.70
2024-01-10T11:00:22.917Z,17.13
2024-01-10T11:03:12.628Z,17.07
2024-01-10T11:05:59.901Z,17.23
2024-01-10T11:08:57.226Z,17.03
2024-01-10T11:12:03.780Z,15.17
2024-01-10T11:15:40.245Z,16.60
2024-01-10T11:18:28.687Z,15.90
2024-01-10T11:21:29.897Z,17.27
2024-01-10T11:24:15.682Z,16.80
2024-01-10T11:27:15.363Z,16.90
2024-01-10T11:30:01.492Z,16.63
2024-01-10T11:32:46.785Z,16.33
2024-01-10T11:35:33.400Z,16.33
2024-01-10T11:38:18.913Z,15.47
2024-01-10T11:41:05.625Z,16.40
2024-01-10T11:44:11.568Z,17.60
2024-01-10T11:47:00.822Z,16.13
2024-01-10T11:49:59.806Z,16.73
2024-01-10T11:52:45.268Z,16.80
2024-01-10T11:55:51.590Z,16.43
2024-01-10T11:58:55.897Z,16.50
2024-01-10T12:01:43.282Z,15.73
2024-01-10T12:04:41.517Z,16.87
2024-01-10T12:07:32.399Z,16.03
2024-01-10T12:10:17.586Z,17.00
2024-01-10T12:13:03.363Z,16.43
2024-01-10T12:15:49.294Z,16.10
2024-01-10T12:18:34.945Z,16.83
2024-01-10T12:21:20.443Z,14.53
2024-01-10T12:24:09.179Z,15.73
2024-01-10T12:26:55.140Z,16.53
2024-01-10T12:29:41.177Z,16.87
2024-01-10T12:32:27.078Z,16.30
2024-01-10T12:35:12.472Z,16.00
2024-01-10T12:37:57.883Z,16.20
2024-01-10T12:40:43.235Z,22.27
2024-01-10T12:43:28.982Z,58.20
2024-01-10T12:46:14.597Z,72.60
2024-01-10T12:49:08.217Z,69.63
2024-01-10T12:51:54.380Z,60.83
2024-01-10T12:54:40.112Z,52.33
2024-01-10T12:57:25.576Z,49.57
2024-01-10T13:00:12.223Z,52.90
2024-01-10T13:02:57.708Z,66.03
2024-01-10T13:05:44.805Z,75.67
2024-01-10T13:08:30.358Z,59.43
2024-01-10T13:11:16.074Z,52.37
2024-01-10T13:14:01.798Z,43.40
2024-01-10T13:16:54.411Z,39.37
2024-01-10T13:19:49.424Z,35.90
2024-01-10T13:22:34.953Z,35.47
2024-01-10T13:25:24.122Z,31.97
2024-01-10T13:28:13.104Z,29.37
2024-01-10T13:30:58.552Z,29.47
2024-01-10T13:33:47.018Z,28.40
2024-01-10T13:36:33.475Z,28.23
2024-01-10T13:39:18.782Z,27.10
2024-01-10T13:42:04.054Z,28.50
2024-01-10T13:44:49.356Z,26.53
2024-01-10T13:47:35.523Z,25.57
2024-01-10T13:50:20.828Z,25.30
2024-01-10T13:53:06.351Z,25.60
2024-01-10T13:55:51.729Z,23.83
2024-01-10T13:58:37.108Z,24.37
2024-01-10T14:01:22.465Z,23.80
2024-01-10T14:04:07.912Z,22.70
2024-01-10T14:06:53.400Z,22.27
2024-01-10T14:09:38.724Z,21.97
2024-01-10T14:12:24.059Z,20.83
2024-01-10T14:15:10.313Z,21.23
2024-01-10T14:17:55.832Z,20.70
2024-01-10T14:20:42.708Z,19.53
2024-01-10T14:23:28.607Z,19.23
2024-01-10T14:26:13.921Z,19.80
2024-01-10T14:29:00.476Z,19.83
2024-01-10T14:31:57.302Z,20.40
2024-01-10T14:34:51.522Z,19.47
2024-01-10T14:37:37.540Z,19.73
2024-01-10T14:40:25.011Z,18.60
2024-01-10T14:43:10.589Z,18.53
2024-01-10T14:45:55.733Z,18.23
2024-01-10T14:48:40.955Z,15.97
2024-01-10T14:51:26.446Z,18.60
2024-01-10T14:54:11.797Z,17.93
2024-01-10T14:56:57.695Z,17.30
2024-01-10T14:59:46.487Z,16.80
2024-01-10T15:02:32.878Z,16.87
2024-01-10T15:05:19.170Z,16.83
2024-01-10T15:08:08.709Z,17.57
2024-01-10T15:10:53.948Z,16.77
2024-01-10T15:13:46.779Z,15.40
2024-01-10T15:16:32.952Z,15.47
2024-01-10T15:19:19.114Z,16.27
2024-01-10T15:22:04.843Z,16.07
2024-01-10T15:24:50.305Z,16.60
2024-01-10T15:27:35.309Z,15.20
2024-01-10T15:30:21.688Z,15.63
2024-01-10T15:33:10.613Z,15.63
2024-01-10T15:35:56.473Z,14.97
2024-01-10T15:38:42.265Z,14.53
2024-01-10T15:41:27.787Z,14.27
2024-01-10T15:44:13.006Z,14.20
2024-01-10T15:46:58.919Z,14.37
2024-01-10T15:49:45.306Z,14.53
2024-01-10T15:52:30.709Z,14.50
2024-01-10T15:55:15.920Z,15.03
2024-01-10T15:58:01.210Z,15.47
2024-01-10T16:00:46.842Z,14.87
2024-01-10T16:03:32.140Z,13.23
2024-01-10T16:06:18.534Z,13.03
2024-01-10T16:09:06.796Z,13.23
2024-01-10T16:11:51.946Z,14.63
2024-01-10T16:14:37.433Z,14.27
2024-01-10T16:17:22.734Z,13.97
2024-01-10T16:20:08.584Z,13.23
2024-01-10T16:22:53.630Z,13.83
2024-01-10T16:25:38.775Z,13.93
2024-01-10T16:28:23.899Z,13.13
2024-01-10T16:31:09.447Z,14.33
2024-01-10T16:33:54.758Z,12.90
2024-01-10T16:36:40.151Z,12.50
2024-01-10T16:39:25.156Z,13.40
2024-01-10T16:42:10.824Z,13.00
2024-01-10T16:44:56.071Z,13.43
2024-01-10T16:47:41.434Z,12.63
2024-01-10T16:50:30.981Z,13.93
2024-01-10T16:53:16.495Z,13.17
2024-01-10T16:56:01.636Z,12.83
2024-01-10T16:58:47.043Z,13.00
2024-01-10T17:01:32.368Z,12.97
2024-01-10T17:04:17.941Z,13.93
2024-01-10T17:07:03.294Z,14.57
2024-01-10T17:09:52.256Z,13.40
2024-01-10T17:12:37.749Z,13.27
2024-01-10T17:15:22.918Z,13.30
2024-01-10T17:18:08.349Z,12.83
2024-01-10T17:20:53.691Z,13.10
2024-01-10T17:23:38.915Z,13.17
2024-01-10T17:26:24.322Z,13.10
2024-01-10T17:29:09.682Z,12.80
2024-01-10T17:31:55.250Z,13.30
2024-01-10T17:34:41.024Z,12.50
2024-01-10T17:37:26.546Z,13.27
2024-01-10T17:40:12.469Z,14.27
2024-01-10T17:42:57.977Z,12.70
2024-01-10T17:45:43.666Z,12.83
2024-01-10T17:48:29.471Z,12.57
2024-01-10T17:51:20.788Z,13.13
2024-01-10T17:54:07.180Z,12.53
2024-01-10T17:56:52.416Z,13.90
2024-01-10T17:59:37.836Z,12.73
2024-01-10T18:02:23.467Z,13.00
2024-01-10T18:05:08.712Z,12.37
2024-01-10T18:07:54.136Z,12.43
2024-01-10T18:10:41.408Z,12.83
2024-01-10T18:13:26.934Z,13.50
2024-01-10T18:16:12.575Z,12.93
2024-01-10T18:18:58.578Z,13.07
2024-01-10T18:21:43.902Z,13.30
2024-01-10T18:24:29.578Z,13.17
2024-01-10T18:27:15.118Z,12.63
2024-01-10T18:30:00.480Z,13.07
2024-01-10T18:32:45.858Z,14.07
2024-01-10T18:35:32.089Z,13.53
2024-01-10T18:38:18.661Z,13.30
2024-01-10T18:41:04.200Z,12.80
2024-01-10T18:43:49.489Z,14.03
2024-01-10T18:46:35.043Z,12.70
2024-01-10T18:49:20.445Z,13.50
2024-01-10T18:52:05.882Z,13.77
2024-01-10T18:54:51.702Z,12.77
2024-01-10T18:57:38.066Z,13.13
2024-01-10T19:00:26.231Z,14.40
2024-01-10T19:03:11.327Z,13.93
2024-01-10T19:05:56.657Z,13.30
2024-01-10T19:08:42.140Z,13.80
2024-01-10T19:11:27.684Z,13.83
2024-01-10T19:14:13.552Z,13.27
2024-01-10T19:16:58.682Z,14.70
2024-01-10T19:19:44.012Z,13.37
2024-01-10T19:22:29.445Z,15.40
2024-01-10T19:25:14.946Z,14.67
2024-01-10T19:28:00.258Z,13.37
2024-01-10T19:30:45.363Z,13.40
2024-01-10T19:33:30.734Z,13.40
2024-01-10T19:36:16.388Z,15.20
2024-01-10T19:39:01.737Z,14.00
2024-01-10T19:41:46.853Z,14.37
2024-01-10T19:44:32.717Z,14.27
2024-01-10T19:47:18.401Z,13.47
2024-01-10T19:50:03.880Z,14.77
2024-01-10T19:52:49.358Z,13.37
2024-01-10T19:55:34.558Z,14.03
2024-01-10T19:58:19.997Z,14.30
2024-01-10T20:01:05.546Z,14.10
2024-01-10T20:03:51.096Z,14.10
2024-01-10T20:06:36.682Z,13.63
2024-01-10T20:09:21.810Z,14.70
2024-01-10T20:12:07.574Z,14.20
2024-01-10T20:14:52.781Z,14.30
2024-01-10T20:17:38.197Z,15.00
2024-01-10T20:20:23.744Z,15.07
2024-01-10T20:23:08.981Z,14.60
2024-01-10T20:25:54.510Z,14.60
2024-01-10T20:28:39.660Z,14.00
2024-01-10T20:31:25.301Z,14.90
2024-01-10T20:34:10.628Z,13.87
2024-01-10T20:36:55.693Z,13.93
2024-01-10T20:39:41.212Z,14.77
2024-01-10T20:42:29.977Z,14.83
2024-01-10T20:45:17.723Z,16.07
2024-01-10T20:48:03.993Z,15.87
2024-01-10T20:50:49.053Z,15.23
2024-01-10T20:53:35.542Z,14.00
2024-01-10T20:56:20.716Z,15.80
2024-01-10T20:59:05.710Z,14.97
2024-01-10T21:01:50.822Z,15.30
2024-01-10T21:04:36.112Z,15.17
2024-01-10T21:07:21.473Z,15.97
2024-01-10T21:10:07.999Z,15.37
2024-01-10T21:12:53.213Z,15.77
2024-01-10T21:15:38.294Z,15.67
2024-01-10T21:18:23.689Z,15.67
2024-01-10T21:21:08.820Z,15.67
2024-01-10T21:23:53.989Z,14.67
2024-01-10T21:26:41.805Z,15.50
2024-01-10T21:29:27.509Z,15.23
2024-01-10T21:32:14.525Z,15.53
2024-01-10T21:35:00.752Z,15.43
2024-01-10T21:37:48.680Z,16.57
2024-01-10T21:40:34.474Z,15.70
2024-01-10T21:43:19.997Z,15.67
2024-01-10T21:46:05.147Z,15.57
2024-01-10T21:48:50.794Z,16.10
2024-01-10T21:51:36.258Z,16.90
2024-01-10T21:54:21.516Z,15.33
2024-01-10T21:57:06.583Z,15.93
2024-01-10T21:59:51.671Z,15.13
2024-01-10T22:02:38.450Z,16.37
2024-01-10T22:05:25.661Z,15.90
2024-01-10T22:08:11.640Z,15.63
2024-01-10T22:10:57.377Z,16.87
2024-01-10T22:13:43.446Z,15.87
2024-01-10T22:16:28.766Z,16.97
2024-01-10T22:19:14.389Z,17.13
2024-01-10T22:21:59.743Z,16.30
2024-01-10T22:24:46.022Z,16.33
2024-01-10T22:27:34.301Z,16.77
2024-01-10T22:30:20.738Z,16.87
2024-01-10T22:33:06.715Z,15.90
2024-01-10T22:35:52.147Z,15.57
2024-01-10T22:38:37.462Z,16.87
2024-01-10T22:41:22.661Z,15.87
2024-01-10T22:44:08.953Z,15.83
2024-01-10T22:46:54.022Z,15.53
2024-01-10T22:49:39.200Z,15.37
2024-01-10T22:52:24.517Z,15.70
2024-01-10T22:55:10.166Z,16.30
2024-01-10T22:57:55.772Z,16.17
2024-01-10T23:00:41.163Z,16.53
2024-01-10T23:03:26.476Z,16.07
2024-01-10T23:06:11.958Z,15.73
2024-01-10T23:08:57.398Z,16.40
2024-01-10T23:11:42.964Z,16.83
2024-01-10T23:14:28.186Z,15.43
2024-01-10T23:17:13.581Z,17.10
2024-01-10T23:19:58.837Z,16.30
2024-01-10T23:22:44.219Z,15.80
2024-01-10T23:25:29.457Z,16.27
2024-01-10T23:28:15.191Z,15.83
2024-01-10T23:31:00.897Z,16.03
2024-01-10T23:33:46.475Z,16.30
2024-01-10T23:36:31.960Z,16.10
2024-01-10T23:39:17.230Z,16.27
2024-01-10T23:42:02.470Z,16.00
2024-01-10T23:44:47.791Z,15.53
2024-01-10T23:47:33.161Z,15.57
2024-01-10T23:50:18.269Z,14.93
2024-01-10T23:53:03.779Z,17.17
2024-01-10T23:55:49.087Z,15.83
2024-01-10T23:58:34.823Z,16.03
